Time;durP1;ratioP1;P1;durP2;ratioP2;P2;SDS_P1;SDS_P2;PMS_P1;PMS_P2;Temp;Humidity;BMP_temperature;BMP_pressure;BME280_temperature;BME280_humidity;BME280_pressure;Samples;Min_cycle;Max_cycle;Signal;HPM_P1;HPM_P2
2023/09/19 00:01:40;;;;;;;;;;;;;;;21.50;27.57;98327.09;5016751;28;1984;-77
2023/09/19 00:04:09;;;;;;;;;;;;;;;21.37;27.87;98328.16;5000159;28;1988;-77
2023/09/19 00:06:38;;;;;;;;;;;;;;;21.71;27.09;98331.50;5001305;28;962;-77
2023/09/19 00:09:04;;;;;;;;;;;;;;;21.42;27.77;98324.81;5017138;28;1178;-77
2023/09/19 00:11:30;;;;;;;;;;;;;;;21.62;27.41;98331.28;5033352;28;1032;-77
2023/09/19 00:13:57;;;;;;;;;;;;;;;21.49;27.48;98330.31;5016997;28;1203;-78
2023/09/19 00:16:22;;;;;;;;;;;;;;;21.41;27.56;98328.91;5017167;28;1092;-77
2023/09/19 00:18:49;;;;;;;;;;;;;;;21.44;27.75;98328.00;5016383;28;1862;-77
2023/09/19 00:21:15;;;;;;;;;;;;;;;21.33;27.88;98323.38;4993928;28;939;-77
2023/09/19 00:23:43;;;;;;;;;;;;;;;21.45;27.58;98315.44;5027573;28;947;-78
2023/09/19 00:26:09;;;;;;;;;;;;;;;21.02;28.13;98313.44;5033333;28;1977;-78
2023/09/19 00:28:35;;;;;;;;;;;;;;;20.93;28.29;98310.38;5033415;28;1234;-77
2023/09/19 00:31:01;;;;;;;;;;;;;;;21.13;28.03;98311.22;5033374;28;1043;-77
2023/09/19 00:33:29;;;;;;;;;;;;;;;21.31;27.81;98320.19;5016394;28;1968;-78
2023/09/19 00:35:54;;;;;;;;;;;;;;;21.52;27.58;98318.13;5017162;28;863;-77
2023/09/19 00:38:22;;;;;;;;;;;;;;;21.54;27.39;98310.00;5033182;28;1089;-77
2023/09/19 00:40:48;;;;;;;;;;;;;;;21.46;27.57;98309.38;5017042;28;1104;-78
2023/09/19 00:43:13;;;;;;;;;;;;;;;21.47;27.29;98304.50;5016679;28;1011;-78
2023/09/19 00:45:40;;;;;;;;;;;;;;;21.45;27.49;98313.44;5016761;28;1991;-78
2023/09/19 00:48:08;;;;;;;;;;;;;;;21.39;27.57;98314.38;5026824;28;1925;-76
2023/09/19 00:50:34;;;;;;;;;;;;;;;21.49;27.46;98316.97;5032986;28;1733;-78
2023/09/19 00:52:59;;;;;;;;;;;;;;;21.61;27.09;98309.88;5046482;28;1855;-79
2023/09/19 00:55:25;;;;;;;;;;;;;;;21.36;27.44;98304.72;5054934;28;1886;-77
2023/09/19 00:57:50;;;;;;;;;;;;;;;21.33;27.75;98303.56;5054855;28;1122;-78
2023/09/19 01:00:18;;;;;;;;;;;;;;;21.49;27.47;98302.00;5037458;28;1439;-78
2023/09/19 01:02:44;;;;;;;;;;;;;;;21.52;27.41;98301.94;5055521;28;851;-78
2023/09/19 01:05:15;;;;;;;;;;;;;;;21.42;27.45;98313.50;5034216;28;1988;-77
2023/09/19 01:07:41;;;;;;;;;;;;;;;21.44;27.41;98305.34;5034199;28;1261;-77
2023/09/19 01:10:10;;;;;;;;;;;;;;;20.97;28.06;98311.13;5016534;28;1185;-78
2023/09/19 01:12:41;;;;;;;;;;;;;;;21.09;27.71;98307.69;5016555;28;1302;-77
2023/09/19 01:15:12;;;;;;;;;;;;;;;21.18;27.61;98305.03;5016752;28;1514;-77
2023/09/19 01:17:57;;;;;;;;;;;;;;;21.26;27.81;98305.72;5000366;28;1067;-77
2023/09/19 01:20:41;;;;;;;;;;;;;;;21.27;27.58;98291.13;5032149;28;1507;-77
2023/09/19 01:23:12;;;;;;;;;;;;;;;21.46;27.49;98291.59;5032748;28;949;-77
2023/09/19 01:25:56;;;;;;;;;;;;;;;21.47;27.24;98293.16;5032888;28;1918;-77
2023/09/19 01:28:36;;;;;;;;;;;;;;;21.46;27.40;98291.59;5032633;28;1024;-77
2023/09/19 01:31:03;;;;;;;;;;;;;;;21.53;27.32;98285.75;5017325;28;1122;-79
2023/09/19 01:33:33;;;;;;;;;;;;;;;21.52;27.27;98295.50;5016466;28;1743;-78
2023/09/19 01:35:59;;;;;;;;;;;;;;;21.63;27.03;98289.59;4997567;28;1062;-77
2023/09/19 01:38:29;;;;;;;;;;;;;;;21.43;27.33;98293.25;4976652;28;944;-77
2023/09/19 01:40:59;;;;;;;;;;;;;;;21.24;27.61;98294.84;4977355;28;961;-77
2023/09/19 01:43:30;;;;;;;;;;;;;;;21.39;27.50;98298.16;4961631;28;937;-77
2023/09/19 01:46:09;;;;;;;;;;;;;;;21.03;28.42;98303.72;4938736;29;1981;-78
2023/09/19 01:48:47;;;;;;;;;;;;;;;21.42;27.45;98299.34;4941356;29;1892;-77
2023/09/19 01:51:20;;;;;;;;;;;;;;;21.45;27.33;98301.28;4958047;29;1115;-78
2023/09/19 01:53:58;;;;;;;;;;;;;;;21.19;27.70;98298.16;4957970;28;1165;-78
2023/09/19 01:56:28;;;;;;;;;;;;;;;21.35;27.79;98293.81;4957916;28;1252;-78
2023/09/19 01:58:54;;;;;;;;;;;;;;;21.38;27.79;98296.59;4957980;29;1120;-77
2023/09/19 02:01:20;;;;;;;;;;;;;;;21.46;27.20;98297.25;4957531;28;1121;-78
2023/09/19 02:03:46;;;;;;;;;;;;;;;21.32;27.47;98293.47;4957171;28;1800;-77
2023/09/19 02:06:18;;;;;;;;;;;;;;;21.35;27.44;98297.47;4925871;29;1966;-78
2023/09/19 02:08:47;;;;;;;;;;;;;;;21.38;27.33;98301.44;4938704;28;1564;-78
2023/09/19 02:11:13;;;;;;;;;;;;;;;21.35;27.67;98288.16;4983894;28;1696;-77
2023/09/19 02:13:39;;;;;;;;;;;;;;;21.56;27.26;98290.56;4983108;28;1290;-77
2023/09/19 02:16:05;;;;;;;;;;;;;;;21.46;27.36;98297.25;5005847;28;945;-77
2023/09/19 02:18:30;;;;;;;;;;;;;;;21.53;27.09;98302.75;5038474;28;1761;-77
2023/09/19 02:20:58;;;;;;;;;;;;;;;21.40;27.22;98293.31;5055270;28;1709;-78
2023/09/19 02:23:24;;;;;;;;;;;;;;;21.40;27.43;98299.78;5015311;28;1231;-78
2023/09/19 02:25:53;;;;;;;;;;;;;;;21.35;27.31;98291.00;4999144;28;1991;-79
2023/09/19 02:28:18;;;;;;;;;;;;;;;21.19;27.40;98289.69;4999202;28;991;-77
2023/09/19 02:30:47;;;;;;;;;;;;;;;21.59;27.03;98290.47;4999485;28;1234;-78
2023/09/19 02:33:13;;;;;;;;;;;;;;;21.51;27.05;98293.91;4999174;28;1001;-78
2023/09/19 02:35:38;;;;;;;;;;;;;;;21.40;27.43;98291.31;5014866;28;1687;-78
2023/09/19 02:38:06;;;;;;;;;;;;;;;21.21;27.73;98284.38;4999316;28;1096;-78
2023/09/19 02:40:35;;;;;;;;;;;;;;;21.22;27.49;98283.13;5015231;28;1156;-78
2023/09/19 02:43:01;;;;;;;;;;;;;;;21.39;27.34;98288.88;5015220;28;1034;-78
2023/09/19 02:45:27;;;;;;;;;;;;;;;21.17;27.45;98286.47;5015242;28;1987;-77
2023/09/19 02:47:53;;;;;;;;;;;;;;;21.41;27.29;98283.59;5015179;28;1116;-77
2023/09/19 02:50:19;;;;;;;;;;;;;;;21.47;26.94;98281.84;5013662;28;1838;-78
2023/09/19 02:52:48;;;;;;;;;;;;;;;21.32;27.40;98279.31;4998873;28;1527;-77
2023/09/19 02:55:17;;;;;;;;;;;;;;;21.68;26.83;98269.25;5019826;28;1648;-78
2023/09/19 02:57:46;;;;;;;;;;;;;;;21.37;27.05;98277.22;4995293;28;1030;-78
2023/09/19 03:00:12;;;;;;;;;;;;;;;21.42;27.10;98265.38;4979079;28;1064;-77
2023/09/19 03:02:39;;;;;;;;;;;;;;;21.31;27.36;98274.91;4921042;29;1131;-78
2023/09/19 03:05:05;;;;;;;;;;;;;;;21.33;27.05;98266.75;4920816;29;1948;-78
2023/09/19 03:07:31;;;;;;;;;;;;;;;21.29;27.51;98270.88;4885803;29;1720;-78
2023/09/19 03:09:57;;;;;;;;;;;;;;;21.21;27.62;98273.06;4883923;29;1666;-77
2023/09/19 03:12:23;;;;;;;;;;;;;;;21.16;27.48;98273.56;4868421;29;1233;-78
2023/09/19 03:14:48;;;;;;;;;;;;;;;21.04;27.76;98277.06;4883647;29;937;-77
2023/09/19 03:17:14;;;;;;;;;;;;;;;21.04;27.86;98277.06;4868985;29;957;-77
2023/09/19 03:19:40;;;;;;;;;;;;;;;21.17;27.75;98286.47;4868327;29;1296;-77
2023/09/19 03:22:07;;;;;;;;;;;;;;;21.53;26.87;98280.09;4856299;29;1662;-79
2023/09/19 03:24:35;;;;;;;;;;;;;;;21.21;27.46;98275.88;4905749;29;1911;-77
2023/09/19 03:27:03;;;;;;;;;;;;;;;20.88;28.06;98274.94;4921218;29;1459;-77
2023/09/19 03:29:29;;;;;;;;;;;;;;;21.11;27.83;98285.38;4921502;29;1137;-78
2023/09/19 03:31:54;;;;;;;;;;;;;;;21.16;27.65;98279.22;4921427;29;1270;-77
2023/09/19 03:34:20;;;;;;;;;;;;;;;21.16;27.58;98282.06;4932098;28;1085;-78
2023/09/19 03:36:46;;;;;;;;;;;;;;;21.25;27.36;98285.09;4994225;28;1692;-78
2023/09/19 03:39:15;;;;;;;;;;;;;;;21.29;27.25;98282.97;4997631;28;1135;-78
2023/09/19 03:41:42;;;;;;;;;;;;;;;21.37;27.43;98277.22;5046591;28;1234;-78
2023/09/19 03:44:07;;;;;;;;;;;;;;;21.30;27.34;98276.13;5053846;28;1968;-77
2023/09/19 03:46:35;;;;;;;;;;;;;;;21.30;27.38;98284.63;5037928;28;965;-77
2023/09/19 03:49:01;;;;;;;;;;;;;;;21.14;27.50;98280.88;5033677;28;994;-77
2023/09/19 03:51:27;;;;;;;;;;;;;;;21.24;27.14;98288.34;4999418;28;1678;-77
2023/09/19 03:53:52;;;;;;;;;;;;;;;21.12;27.63;98280.53;5001188;28;1143;-77
2023/09/19 03:56:18;;;;;;;;;;;;;;;21.14;27.49;98276.03;5017512;28;1146;-77
2023/09/19 03:58:44;;;;;;;;;;;;;;;20.99;27.89;98286.06;5033946;28;1184;-77
2023/09/19 04:01:10;;;;;;;;;;;;;;;21.14;27.79;98281.69;5033370;28;1460;-77
2023/09/19 04:03:46;;;;;;;;;;;;;;;21.20;27.43;98279.97;5017454;28;1341;-77
2023/09/19 04:06:14;;;;;;;;;;;;;;;21.01;27.78;98267.38;4979781;28;1910;-78
2023/09/19 04:08:40;;;;;;;;;;;;;;;21.14;27.60;98270.38;4962272;28;1068;-77
2023/09/19 04:11:06;;;;;;;;;;;;;;;21.31;27.14;98263.56;4978462;28;1139;-77
2023/09/19 04:13:31;;;;;;;;;;;;;;;21.23;27.50;98262.09;4977876;28;1323;-77
2023/09/19 04:15:57;;;;;;;;;;;;;;;21.28;27.30;98258.75;4977973;28;930;-77
2023/09/19 04:18:25;;;;;;;;;;;;;;;21.26;27.47;98258.41;4978095;28;1048;-77
2023/09/19 04:20:52;;;;;;;;;;;;;;;21.21;27.44;98258.91;4981853;28;1199;-77
2023/09/19 04:23:19;;;;;;;;;;;;;;;21.25;27.45;98256.81;5013888;28;1473;-77
2023/09/19 04:25:45;;;;;;;;;;;;;;;21.05;27.57;98267.34;5013981;28;1907;-77
2023/09/19 04:28:11;;;;;;;;;;;;;;;21.28;27.50;98264.41;4997073;28;1207;-77
2023/09/19 04:30:42;;;;;;;;;;;;;;;21.19;27.61;98264.22;5014047;28;1240;-78
2023/09/19 04:33:07;;;;;;;;;;;;;;;21.18;27.93;98265.44;5013630;28;1049;-77
2023/09/19 04:35:33;;;;;;;;;;;;;;;21.02;27.91;98271.00;5013417;28;846;-78
2023/09/19 04:37:59;;;;;;;;;;;;;;;20.97;28.23;98272.31;5026599;28;1274;-77
2023/09/19 04:40:26;;;;;;;;;;;;;;;21.20;27.65;98267.84;4993672;28;1249;-78
2023/09/19 04:42:58;;;;;;;;;;;;;;;21.22;27.96;98265.38;4993823;28;1172;-77
2023/09/19 04:45:24;;;;;;;;;;;;;;;21.23;27.89;98267.75;4973924;28;1899;-77
2023/09/19 04:47:49;;;;;;;;;;;;;;;20.96;28.19;98269.94;4958400;28;874;-77
2023/09/19 04:50:16;;;;;;;;;;;;;;;21.25;28.04;98268.13;4954461;29;944;-77
2023/09/19 04:52:45;;;;;;;;;;;;;;;21.28;27.58;98258.75;4923340;29;1302;-77
2023/09/19 04:55:16;;;;;;;;;;;;;;;21.25;27.88;98253.97;4955122;29;954;-77
2023/09/19 04:57:45;;;;;;;;;;;;;;;21.38;27.67;98251.28;4939876;29;964;-77
2023/09/19 05:00:14;;;;;;;;;;;;;;;21.42;27.66;98251.22;4938254;29;1276;-78
2023/09/19 05:02:43;;;;;;;;;;;;;;;21.47;27.49;98247.88;4939109;29;839;-77
2023/09/19 05:05:10;;;;;;;;;;;;;;;21.40;27.86;98253.69;4954473;29;1899;-77
2023/09/19 05:07:35;;;;;;;;;;;;;;;21.16;28.00;98250.94;4938872;29;753;-77
2023/09/19 05:10:01;;;;;;;;;;;;;;;21.21;28.05;98250.41;4956173;28;1015;-77
2023/09/19 05:12:27;;;;;;;;;;;;;;;21.21;28.14;98246.78;5011106;28;1168;-78
2023/09/19 05:14:52;;;;;;;;;;;;;;;21.58;27.30;98248.44;5016739;28;845;-77
2023/09/19 05:17:18;;;;;;;;;;;;;;;21.20;27.90;98251.66;5017008;28;884;-78
2023/09/19 05:19:43;;;;;;;;;;;;;;;21.30;27.81;98250.66;4977438;28;889;-78
2023/09/19 05:22:09;;;;;;;;;;;;;;;21.35;27.73;98254.19;5011935;28;950;-78
2023/09/19 05:24:34;;;;;;;;;;;;;;;21.20;28.24;98251.66;5016345;28;1894;-78
2023/09/19 05:27:00;;;;;;;;;;;;;;;21.22;28.32;98254.84;5016020;28;1058;-78
2023/09/19 05:29:26;;;;;;;;;;;;;;;21.49;27.89;98251.06;5000061;28;741;-76
2023/09/19 05:31:53;;;;;;;;;;;;;;;21.16;28.32;98250.94;5000032;28;1152;-77
2023/09/19 05:34:19;;;;;;;;;;;;;;;21.39;27.71;98240.75;4980399;28;1316;-76
2023/09/19 05:36:44;;;;;;;;;;;;;;;21.03;28.48;98252.81;4980178;28;1385;-77
2023/09/19 05:39:10;;;;;;;;;;;;;;;21.46;27.74;98251.94;4996629;28;789;-76
2023/09/19 05:41:36;;;;;;;;;;;;;;;21.38;28.01;98251.28;4996651;28;783;-76
2023/09/19 05:44:06;;;;;;;;;;;;;;;21.44;27.86;98252.38;4980190;28;1091;-76
2023/09/19 05:46:32;;;;;;;;;;;;;;;21.33;28.32;98255.44;4996639;28;818;-77
2023/09/19 05:48:58;;;;;;;;;;;;;;;21.26;28.33;98261.22;4980121;28;1250;-77
2023/09/19 05:51:23;;;;;;;;;;;;;;;21.35;28.05;98257.03;5010302;28;944;-77
2023/09/19 05:53:49;;;;;;;;;;;;;;;21.42;28.37;98257.69;5015480;28;965;-77
2023/09/19 05:56:15;;;;;;;;;;;;;;;21.47;28.38;98247.88;5015917;28;818;-76
2023/09/19 05:58:44;;;;;;;;;;;;;;;21.14;28.64;98261.91;4999328;28;1206;-77
2023/09/19 06:01:09;;;;;;;;;;;;;;;21.36;28.39;98259.44;5016240;28;991;-77
2023/09/19 06:03:35;;;;;;;;;;;;;;;21.14;28.62;98253.41;4999301;28;843;-77
2023/09/19 06:06:06;;;;;;;;;;;;;;;21.27;28.79;98265.66;5031529;28;1987;-77
2023/09/19 06:08:32;;;;;;;;;;;;;;;21.18;28.69;98268.25;5035646;28;813;-77
2023/09/19 06:10:57;;;;;;;;;;;;;;;21.16;28.95;98279.22;5019270;28;805;-77
2023/09/19 06:13:26;;;;;;;;;;;;;;;21.30;28.50;98276.13;5019060;28;1481;-77
2023/09/19 06:15:52;;;;;;;;;;;;;;;21.23;28.84;98275.44;5035642;28;860;-77
2023/09/19 06:18:19;;;;;;;;;;;;;;;21.61;28.51;98273.06;5018745;28;965;-78
2023/09/19 06:20:46;;;;;;;;;;;;;;;21.52;28.44;98261.50;5018992;28;1330;-78
2023/09/19 06:23:11;;;;;;;;;;;;;;;21.21;29.09;98280.75;4999020;28;928;-77
2023/09/19 06:25:37;;;;;;;;;;;;;;;21.39;28.62;98274.72;5015334;28;1918;-77
2023/09/19 06:28:05;;;;;;;;;;;;;;;21.71;28.34;98286.19;5015188;28;962;-77
2023/09/19 06:30:30;;;;;;;;;;;;;;;21.55;28.22;98284.09;5019914;28;1228;-78
2023/09/19 06:32:58;;;;;;;;;;;;;;;21.68;28.37;98287.03;5018742;28;986;-78
2023/09/19 06:35:26;;;;;;;;;;;;;;;21.55;28.46;98284.09;5035227;28;1038;-77
2023/09/19 06:37:52;;;;;;;;;;;;;;;21.75;27.99;98278.38;5035480;28;1228;-77
2023/09/19 06:40:17;;;;;;;;;;;;;;;21.54;28.36;98281.69;5018852;28;894;-77
2023/09/19 06:42:45;;;;;;;;;;;;;;;21.45;28.79;98282.28;5035176;28;1038;-77
2023/09/19 06:45:13;;;;;;;;;;;;;;;21.52;28.50;98284.97;5035494;28;1910;-77
2023/09/19 06:47:39;;;;;;;;;;;;;;;21.33;28.88;98289.41;5035434;28;951;-78
2023/09/19 06:50:05;;;;;;;;;;;;;;;20.84;29.72;98281.91;5035561;28;996;-77
2023/09/19 06:52:32;;;;;;;;;;;;;;;21.11;29.05;98293.88;5018335;28;964;-78
2023/09/19 06:54:58;;;;;;;;;;;;;;;21.35;29.03;98291.00;5018624;28;975;-77
2023/09/19 06:57:24;;;;;;;;;;;;;;;21.38;28.75;98273.16;5002091;28;985;-78
2023/09/19 06:59:50;;;;;;;;;;;;;;;21.09;29.27;98285.03;5018437;28;1280;-77
2023/09/19 07:02:15;;;;;;;;;;;;;;;21.31;28.74;98285.41;5035082;28;1067;-78
2023/09/19 07:04:41;;;;;;;;;;;;;;;21.36;29.01;98289.78;5022451;28;1991;-77
2023/09/19 07:07:08;;;;;;;;;;;;;;;21.59;28.40;98289.66;5039340;28;1003;-77
2023/09/19 07:09:34;;;;;;;;;;;;;;;21.35;29.05;98296.66;5039744;28;1286;-78
2023/09/19 07:12:00;;;;;;;;;;;;;;;21.20;29.07;98291.28;5056110;28;1250;-77
2023/09/19 07:14:26;;;;;;;;;;;;;;;21.04;29.29;98288.38;5055902;28;857;-78
2023/09/19 07:16:52;;;;;;;;;;;;;;;21.13;29.57;98291.41;5057317;28;1019;-78
2023/09/19 07:19:17;;;;;;;;;;;;;;;21.44;28.78;98291.22;5055886;28;885;-77
2023/09/19 07:21:43;;;;;;;;;;;;;;;20.95;29.64;98288.94;5054899;28;917;-77
2023/09/19 07:24:08;;;;;;;;;;;;;;;21.59;28.50;98284.00;5057118;28;1907;-78
2023/09/19 07:26:34;;;;;;;;;;;;;;;21.49;28.81;98288.66;5037663;28;1160;-78
2023/09/19 07:28:59;;;;;;;;;;;;;;;21.40;28.68;98281.97;5038070;28;1004;-78
2023/09/19 07:31:27;;;;;;;;;;;;;;;21.27;29.05;98296.78;5054248;28;1269;-78
2023/09/19 07:33:53;;;;;;;;;;;;;;;21.35;29.00;98285.31;5038112;28;984;-78
2023/09/19 07:36:19;;;;;;;;;;;;;;;21.47;28.91;98273.34;5036924;28;1200;-77
2023/09/19 07:38:44;;;;;;;;;;;;;;;21.67;28.31;98285.44;5037672;28;1001;-78
2023/09/19 07:41:10;;;;;;;;;;;;;;;21.57;28.49;98278.00;5037803;28;965;-78
2023/09/19 07:43:35;;;;;;;;;;;;;;;21.55;28.78;98267.09;5037736;28;939;-78
2023/09/19 07:46:08;;;;;;;;;;;;;;;21.69;28.21;98277.31;5054356;28;1906;-78
2023/09/19 07:48:37;;;;;;;;;;;;;;;21.64;28.48;98275.00;5020754;28;944;-78
2023/09/19 07:51:03;;;;;;;;;;;;;;;21.52;28.86;98273.63;5037687;28;956;-75
2023/09/19 07:53:30;;;;;;;;;;;;;;;21.45;28.91;98272.97;5033932;28;1119;-76
2023/09/19 07:56:08;;;;;;;;;;;;;;;21.13;29.30;98268.75;5034187;28;932;-77
2023/09/19 07:58:34;;;;;;;;;;;;;;;21.17;29.23;98269.50;5033137;28;935;-78
2023/09/19 08:01:03;;;;;;;;;;;;;;;21.13;29.39;98263.09;5017725;28;1008;-76
2023/09/19 08:03:29;;;;;;;;;;;;;;;21.38;29.27;98273.16;5017396;28;1062;-77
2023/09/19 08:05:56;;;;;;;;;;;;;;;21.47;29.17;98267.69;5017498;28;1909;-78
2023/09/19 08:08:23;;;;;;;;;;;;;;;21.32;29.32;98256.69;5017645;28;1109;-77
2023/09/19 08:10:52;;;;;;;;;;;;;;;21.42;28.94;98269.00;5017512;28;1380;-78
2023/09/19 08:13:21;;;;;;;;;;;;;;;21.52;28.68;98262.31;5001246;28;1084;-77
2023/09/19 08:15:47;;;;;;;;;;;;;;;21.22;29.30;98266.16;5013418;28;1256;-77
2023/09/19 08:18:13;;;;;;;;;;;;;;;21.53;29.10;98263.09;5013853;28;899;-77
2023/09/19 08:20:42;;;;;;;;;;;;;;;21.27;29.48;98259.97;5013513;28;822;-77
2023/09/19 08:23:08;;;;;;;;;;;;;;;20.99;29.96;98257.75;4997169;28;923;-76
2023/09/19 08:25:34;;;;;;;;;;;;;;;21.32;29.33;98261.53;5029816;28;1980;-77
2023/09/19 08:28:01;;;;;;;;;;;;;;;21.37;29.02;98257.41;5013625;28;807;-77
2023/09/19 08:30:27;;;;;;;;;;;;;;;21.44;29.07;98248.75;5014412;28;889;-77
2023/09/19 08:32:59;;;;;;;;;;;;;;;21.59;28.74;98250.03;5017051;28;876;-77
2023/09/19 08:35:24;;;;;;;;;;;;;;;21.66;28.67;98249.88;5033426;28;977;-78
2023/09/19 08:37:51;;;;;;;;;;;;;;;21.72;28.72;98242.44;5033650;28;952;-76
2023/09/19 08:40:17;;;;;;;;;;;;;;;21.75;28.45;98247.22;5053404;28;1344;-77
2023/09/19 08:42:53;;;;;;;;;;;;;;;21.53;28.84;98240.47;5036438;28;913;-77
2023/09/19 08:45:19;;;;;;;;;;;;;;;21.64;28.72;98232.50;5036655;28;1898;-77
2023/09/19 08:47:54;;;;;;;;;;;;;;;21.18;29.48;98242.78;5037799;28;906;-77
2023/09/19 08:50:23;;;;;;;;;;;;;;;21.26;29.59;98232.94;5039882;28;941;-77
2023/09/19 08:52:49;;;;;;;;;;;;;;;21.10;29.70;98224.38;5038662;28;805;-77
2023/09/19 08:55:20;;;;;;;;;;;;;;;21.41;29.20;98224.94;5020731;28;1135;-77
2023/09/19 08:57:48;;;;;;;;;;;;;;;21.59;28.80;98224.53;5021893;28;919;-76
2023/09/19 09:00:17;;;;;;;;;;;;;;;21.68;28.83;98221.91;5020892;28;929;-77
2023/09/19 09:02:43;;;;;;;;;;;;;;;21.60;28.84;98228.97;5021349;28;1038;-77
2023/09/19 09:05:09;;;;;;;;;;;;;;;21.65;28.77;98228.44;5020614;28;1910;-77
2023/09/19 09:07:36;;;;;;;;;;;;;;;21.32;29.51;98219.88;5021006;28;959;-77
2023/09/19 09:10:02;;;;;;;;;;;;;;;21.09;29.89;98217.13;5037009;28;1180;-77
2023/09/19 09:12:28;;;;;;;;;;;;;;;21.56;28.94;98219.78;4978253;28;1129;-77
2023/09/19 09:14:53;;;;;;;;;;;;;;;21.80;28.60;98215.53;4961777;28;1339;-77
2023/09/19 09:17:20;;;;;;;;;;;;;;;21.67;28.75;98209.00;4959153;29;1095;-77
2023/09/19 09:19:48;;;;;;;;;;;;;;;21.64;28.70;98212.69;4943185;29;1015;-77
2023/09/19 09:22:14;;;;;;;;;;;;;;;21.30;29.37;98216.69;4942841;29;953;-77
2023/09/19 09:24:58;;;;;;;;;;;;;;;21.46;29.03;98209.47;4927126;29;1898;-77
2023/09/19 09:27:23;;;;;;;;;;;;;;;21.62;28.93;98208.72;4943282;29;1203;-77
2023/09/19 09:29:49;;;;;;;;;;;;;;;21.62;28.90;98209.50;4942936;29;1114;-77
2023/09/19 09:32:25;;;;;;;;;;;;;;;21.26;29.59;98198.97;4943207;29;997;-77
2023/09/19 09:34:53;;;;;;;;;;;;;;;21.39;29.29;98196.28;4958721;29;967;-77
2023/09/19 09:37:20;;;;;;;;;;;;;;;21.36;29.30;98190.72;4958860;29;1022;-77
2023/09/19 09:39:52;;;;;;;;;;;;;;;21.06;29.92;98196.16;4978079;28;978;-77
2023/09/19 09:42:35;;;;;;;;;;;;;;;21.16;29.83;98182.22;4978593;28;1016;-77
2023/09/19 09:48:03;;;;;;;;;;;;;;;21.51;29.08;98187.09;5021881;28;980;-77
2023/09/19 09:53:07;;;;;;;;;;;;;;;21.76;28.87;98182.88;5004212;28;1126;-77
2023/09/19 09:55:51;;;;;;;;;;;;;;;21.76;29.01;98186.53;5036393;28;885;-77
2023/09/19 09:58:22;;;;;;;;;;;;;;;21.73;28.86;98181.72;5055094;28;834;-77
2023/09/19 10:00:57;;;;;;;;;;;;;;;21.49;29.58;98180.28;5040640;28;979;-77
2023/09/19 10:03:31;;;;;;;;;;;;;;;21.54;29.42;98174.88;5056285;28;943;-77
2023/09/19 10:05:58;;;;;;;;;;;;;;;21.70;29.41;98167.66;5039882;28;1902;-77
2023/09/19 10:08:23;;;;;;;;;;;;;;;21.55;29.26;98175.69;5039648;28;999;-77
2023/09/19 10:13:17;;;;;;;;;;;;;;;21.64;29.17;98175.09;5039540;28;1077;-77
2023/09/19 10:15:48;;;;;;;;;;;;;;;21.46;29.32;98178.34;5046034;28;1904;-77
2023/09/19 10:18:18;;;;;;;;;;;;;;;21.37;29.63;98175.31;5022331;28;931;-77
2023/09/19 10:20:45;;;;;;;;;;;;;;;21.48;29.39;98167.38;5037746;28;809;-77
2023/09/19 10:23:15;;;;;;;;;;;;;;;21.24;29.90;98167.50;5020896;28;916;-77
2023/09/19 10:25:41;;;;;;;;;;;;;;;21.46;29.45;98158.53;5037363;28;1915;-76
2023/09/19 10:28:10;;;;;;;;;;;;;;;21.56;29.51;98163.13;5037119;28;970;-77
2023/09/19 10:30:47;;;;;;;;;;;;;;;21.46;29.54;98164.19;5021016;28;948;-77
2023/09/19 10:33:13;;;;;;;;;;;;;;;21.22;30.08;98164.28;5037994;28;892;-77
2023/09/19 10:35:42;;;;;;;;;;;;;;;21.46;29.87;98167.03;5038357;28;855;-77
2023/09/19 10:38:09;;;;;;;;;;;;;;;21.57;29.27;98159.06;5037252;28;1084;-77
2023/09/19 10:40:35;;;;;;;;;;;;;;;21.67;29.36;98160.84;5020814;28;877;-77
2023/09/19 10:43:07;;;;;;;;;;;;;;;21.77;29.36;98159.78;5036869;28;1126;-76
2023/09/19 10:45:34;;;;;;;;;;;;;;;21.64;29.16;98158.88;5036928;28;1979;-77
2023/09/19 10:48:00;;;;;;;;;;;;;;;21.61;29.55;98151.28;5037427;28;889;-76
2023/09/19 10:50:26;;;;;;;;;;;;;;;21.32;29.91;98143.47;5020583;28;912;-77
2023/09/19 10:52:58;;;;;;;;;;;;;;;21.53;29.68;98138.53;5036803;28;939;-76
2023/09/19 10:55:24;;;;;;;;;;;;;;;21.54;29.95;98146.56;5021186;28;1742;-77
2023/09/19 10:57:50;;;;;;;;;;;;;;;21.60;29.91;98144.00;5036709;28;977;-78
2023/09/19 11:03:06;;;;;;;;;;;;;;;21.73;29.33;98142.09;5021046;28;1241;-77
2023/09/19 11:05:32;;;;;;;;;;;;;;;21.57;29.54;98139.25;5036501;28;1994;-77
2023/09/19 11:07:59;;;;;;;;;;;;;;;21.31;30.24;98133.38;5036640;28;1127;-77
2023/09/19 11:10:43;;;;;;;;;;;;;;;21.68;29.73;98144.66;5036405;28;942;-77
2023/09/19 11:13:31;;;;;;;;;;;;;;;21.39;30.27;98133.19;5036046;28;1132;-77
2023/09/19 11:16:00;;;;;;;;;;;;;;;21.26;30.17;98125.38;5036537;28;1172;-77
2023/09/19 11:18:41;;;;;;;;;;;;;;;21.65;29.85;98120.03;5036630;28;971;-77
2023/09/19 11:21:25;;;;;;;;;;;;;;;21.52;30.04;98126.41;5035156;28;1083;-77
2023/09/19 11:24:09;;;;;;;;;;;;;;;21.11;30.42;98118.47;5034922;28;1052;-77
2023/09/19 11:26:47;;;;;;;;;;;;;;;21.39;30.11;98127.53;5018466;28;1906;-76
2023/09/19 11:29:25;;;;;;;;;;;;;;;21.44;30.23;98124.19;5034780;28;946;-77
2023/09/19 11:31:51;;;;;;;;;;;;;;;21.83;29.65;98126.84;5034739;28;985;-77
2023/09/19 11:34:35;;;;;;;;;;;;;;;21.70;29.61;98125.97;5018433;28;1002;-78
2023/09/19 11:37:03;;;;;;;;;;;;;;;21.70;29.56;98123.13;5018221;28;1170;-77
2023/09/19 11:39:29;;;;;;;;;;;;;;;21.62;29.61;98121.72;5018120;28;951;-77
2023/09/19 11:41:57;;;;;;;;;;;;;;;21.68;29.43;98116.34;5034492;28;1030;-77
2023/09/19 11:44:26;;;;;;;;;;;;;;;21.64;29.61;98116.41;5018141;28;1975;-77
2023/09/19 11:46:54;;;;;;;;;;;;;;;21.66;29.65;98107.47;5018233;28;938;-77
2023/09/19 11:49:26;;;;;;;;;;;;;;;21.76;29.26;98107.22;5034262;28;859;-77
2023/09/19 11:51:51;;;;;;;;;;;;;;;21.32;30.06;98106.66;5022908;28;1001;-77
2023/09/19 11:54:24;;;;;;;;;;;;;;;21.63;29.92;98109.16;5035737;28;1289;-77
2023/09/19 11:56:54;;;;;;;;;;;;;;;21.53;29.77;98104.56;5035667;28;900;-77
2023/09/19 11:59:21;;;;;;;;;;;;;;;21.62;29.86;98101.91;5019444;28;1320;-76
2023/09/19 12:01:50;;;;;;;;;;;;;;;21.59;29.85;98097.91;5019539;28;1190;-77
2023/09/19 12:04:15;;;;;;;;;;;;;;;21.84;29.72;98097.28;5018973;28;1173;-77
2023/09/19 12:06:44;;;;;;;;;;;;;;;21.77;29.78;98100.31;5035271;28;1902;-76
2023/09/19 12:09:16;;;;;;;;;;;;;;;21.35;30.17;98104.19;5019123;28;1033;-78
2023/09/19 12:11:44;;;;;;;;;;;;;;;21.82;29.46;98088.44;5035683;28;1234;-78
2023/09/19 12:14:09;;;;;;;;;;;;;;;21.81;29.68;98103.03;5036752;28;958;-77
2023/09/19 12:16:36;;;;;;;;;;;;;;;21.73;29.64;98090.31;5035337;28;942;-77
2023/09/19 12:19:23;;;;;;;;;;;;;;;21.55;30.04;98096.41;5033803;28;1508;-77
2023/09/19 12:21:59;;;;;;;;;;;;;;;21.65;29.99;98101.00;5017489;28;968;-77
2023/09/19 12:24:26;;;;;;;;;;;;;;;21.84;29.57;98085.16;5017758;28;1982;-77
2023/09/19 12:26:52;;;;;;;;;;;;;;;21.73;29.76;98091.09;5001417;28;1108;-77
2023/09/19 12:29:19;;;;;;;;;;;;;;;21.86;29.56;98085.50;5034072;28;1248;-77
2023/09/19 12:31:50;;;;;;;;;;;;;;;21.66;29.64;98096.97;5001209;28;978;-77
2023/09/19 12:34:28;;;;;;;;;;;;;;;22.01;29.34;98083.09;5017249;28;945;-78
2023/09/19 12:37:13;;;;;;;;;;;;;;;21.91;29.51;98081.34;5017926;28;927;-77
2023/09/19 12:39:40;;;;;;;;;;;;;;;21.74;29.73;98070.03;4997484;28;1036;-77
2023/09/19 12:42:08;;;;;;;;;;;;;;;21.96;29.29;98077.97;5014133;28;1088;-77
2023/09/19 12:44:35;;;;;;;;;;;;;;;21.88;29.58;98074.53;4997809;28;1910;-77
2023/09/19 12:47:09;;;;;;;;;;;;;;;21.98;29.25;98072.66;4997972;28;928;-77
2023/09/19 12:49:34;;;;;;;;;;;;;;;21.78;29.76;98065.06;5003715;28;1461;-77
2023/09/19 12:52:00;;;;;;;;;;;;;;;21.50;30.27;98072.28;5017515;28;1224;-76
2023/09/19 12:54:37;;;;;;;;;;;;;;;21.74;29.89;98064.38;5017594;28;947;-77
2023/09/19 12:57:02;;;;;;;;;;;;;;;21.74;29.81;98070.03;5017571;28;1034;-77
2023/09/19 12:59:30;;;;;;;;;;;;;;;21.75;29.55;98062.31;5017469;28;1008;-77
2023/09/19 13:02:03;;;;;;;;;;;;;;;21.65;30.08;98055.69;5017465;28;956;-77
2023/09/19 13:04:29;;;;;;;;;;;;;;;21.57;30.13;98059.97;5017146;28;1922;-77
2023/09/19 13:07:00;;;;;;;;;;;;;;;21.69;29.98;98061.28;4984816;28;927;-77
2023/09/19 13:09:31;;;;;;;;;;;;;;;21.77;29.58;98068.38;5017090;28;1424;-77
2023/09/19 13:11:59;;;;;;;;;;;;;;;21.72;29.91;98068.91;5034646;28;1048;-77
2023/09/19 13:14:27;;;;;;;;;;;;;;;21.47;30.13;98061.03;5035879;28;877;-77
2023/09/19 13:16:56;;;;;;;;;;;;;;;21.41;30.33;98072.09;5035152;28;1055;-77